createdAt,value
2023-04-05T00:02:29.938Z,10.00
2023-04-05T00:05:29.299Z,10.00
2023-04-05T00:08:23.961Z,10.10
2023-04-05T00:11:12.618Z,10.10
2023-04-05T00:14:03.381Z,10.10
2023-04-05T00:16:52.047Z,10.10
2023-04-05T00:19:40.568Z,10.10
2023-04-05T00:22:35.982Z,10.10
2023-04-05T00:25:24.386Z,10.00
2023-04-05T00:28:13.092Z,10.00
2023-04-05T00:31:02.901Z,10.10
2023-04-05T00:33:51.341Z,10.00
2023-04-05T00:36:39.768Z,10.00
2023-04-05T00:39:28.487Z,10.00
2023-04-05T00:42:16.904Z,9.90
2023-04-05T00:45:06.066Z,10.00
2023-04-05T00:47:57.085Z,10.00
2023-04-05T00:50:46.371Z,10.00
2023-04-05T00:53:34.908Z,10.00
2023-04-05T00:56:24.396Z,10.00
2023-04-05T00:59:12.914Z,10.00
2023-04-05T01:02:04.957Z,10.00
2023-04-05T01:05:02.038Z,10.00
2023-04-05T01:07:55.423Z,9.90
2023-04-05T01:10:47.713Z,9.80
2023-04-05T01:13:36.585Z,9.80
2023-04-05T01:16:25.012Z,9.70
2023-04-05T01:19:13.446Z,9.70
2023-04-05T01:22:37.975Z,9.60
2023-04-05T01:25:46.461Z,9.40
2023-04-05T01:28:58.325Z,9.40
2023-04-05T01:31:55.069Z,9.50
2023-04-05T01:34:51.642Z,9.50
2023-04-05T01:37:41.410Z,9.40
2023-04-05T01:40:31.281Z,9.40
2023-04-05T01:43:20.059Z,9.50
2023-04-05T01:46:08.842Z,9.40
2023-04-05T01:48:58.657Z,9.40
2023-04-05T01:51:47.115Z,9.40
2023-04-05T01:54:35.645Z,9.50
2023-04-05T01:57:25.002Z,9.30
2023-04-05T02:00:14.459Z,9.20
2023-04-05T02:03:02.944Z,9.10
2023-04-05T02:05:52.836Z,9.10
2023-04-05T02:08:41.202Z,9.10
2023-04-05T02:11:29.644Z,9.10
2023-04-05T02:14:18.046Z,9.10
2023-04-05T02:17:06.728Z,9.00
2023-04-05T02:20:02.211Z,8.80
2023-04-05T02:22:52.005Z,8.80
2023-04-05T02:25:40.417Z,8.80
2023-04-05T02:28:28.913Z,8.70
2023-04-05T02:31:17.373Z,7.90
2023-04-05T02:34:09.251Z,8.00
2023-04-05T02:36:57.648Z,8.30
2023-04-05T02:39:47.605Z,8.60
2023-04-05T02:42:36.209Z,8.80
2023-04-05T02:45:24.649Z,8.90
2023-04-05T02:48:13.052Z,8.90
2023-04-05T02:51:01.634Z,9.00
2023-04-05T02:53:50.207Z,9.00
2023-04-05T02:56:40.042Z,9.00
2023-04-05T02:59:28.629Z,9.00
2023-04-05T03:02:17.126Z,9.00
2023-04-05T03:05:06.046Z,9.10
2023-04-05T03:07:54.767Z,9.10
2023-04-05T03:10:45.072Z,9.00
2023-04-05T03:13:35.924Z,8.90
2023-04-05T03:16:24.421Z,8.80
2023-04-05T03:19:12.834Z,8.80
2023-04-05T03:22:01.284Z,8.80
2023-04-05T03:24:49.678Z,8.90
2023-04-05T03:27:38.547Z,8.90
2023-04-05T03:30:28.353Z,9.00
2023-04-05T03:33:16.873Z,9.00
2023-04-05T03:36:05.773Z,9.00
2023-04-05T03:38:56.051Z,9.00
2023-04-05T03:41:44.492Z,8.90
2023-04-05T03:44:32.919Z,8.90
2023-04-05T03:47:22.763Z,8.90
2023-04-05T03:50:11.469Z,8.90
2023-04-05T03:52:59.959Z,8.90
2023-04-05T03:55:49.562Z,8.90
2023-04-05T03:58:38.412Z,8.90
2023-04-05T04:01:27.054Z,8.90
2023-04-05T04:04:16.858Z,8.80
2023-04-05T04:07:05.818Z,8.80
2023-04-05T04:09:55.442Z,8.80
2023-04-05T04:12:43.864Z,8.80
2023-04-05T04:15:32.828Z,8.70
2023-04-05T04:18:21.295Z,8.70
2023-04-05T04:21:11.737Z,8.70
2023-04-05T04:24:00.802Z,8.70
2023-04-05T04:26:49.850Z,8.70
2023-04-05T04:29:39.144Z,8.60
2023-04-05T04:32:47.819Z,8.70
2023-04-05T04:35:39.153Z,8.70
2023-04-05T04:38:29.227Z,8.70
2023-04-05T04:41:20.237Z,8.60
2023-04-05T04:44:08.781Z,8.60
2023-04-05T04:46:57.164Z,8.50
2023-04-05T04:49:45.857Z,8.50
2023-04-05T04:52:35.481Z,8.50
2023-04-05T04:55:26.169Z,8.40
2023-04-05T04:58:14.832Z,8.40
2023-04-05T05:01:09.775Z,8.40
2023-04-05T05:03:58.730Z,8.40
2023-04-05T05:06:47.330Z,8.40
2023-04-05T05:09:35.770Z,8.50
2023-04-05T05:12:26.823Z,8.50
2023-04-05T05:15:15.367Z,8.40
2023-04-05T05:18:04.577Z,8.30
2023-04-05T05:20:53.440Z,8.20
2023-04-05T05:23:42.182Z,7.30
2023-04-05T05:26:30.709Z,7.20
2023-04-05T05:29:21.104Z,7.40
2023-04-05T05:32:14.404Z,7.10
2023-04-05T05:35:03.089Z,7.20
2023-04-05T05:37:52.610Z,7.30
2023-04-05T05:40:41.266Z,7.40
2023-04-05T05:43:29.934Z,7.70
2023-04-05T05:46:21.195Z,7.80
2023-04-05T05:49:09.997Z,7.60
2023-04-05T05:51:58.602Z,7.20
2023-04-05T05:57:36.711Z,6.20
2023-04-05T06:00:25.298Z,6.20
2023-04-05T06:03:15.285Z,6.20
2023-04-05T06:40:14.460Z,7.40
2023-04-05T06:51:29.787Z,7.60
2023-04-05T06:54:21.257Z,7.90
2023-04-05T06:57:09.720Z,7.90
2023-04-05T06:59:58.639Z,8.10
2023-04-05T07:02:47.100Z,8.20
2023-04-05T07:05:35.510Z,8.00
2023-04-05T07:08:24.935Z,8.00
2023-04-05T07:11:15.886Z,8.10
2023-04-05T07:14:04.374Z,8.20
2023-04-05T07:16:52.977Z,8.70
2023-04-05T07:19:41.447Z,9.00
2023-04-05T07:22:29.878Z,9.20
2023-04-05T07:25:18.413Z,9.40
2023-04-05T07:28:08.265Z,9.30
2023-04-05T07:30:57.034Z,9.40
2023-04-05T07:33:45.734Z,10.00
2023-04-05T07:36:35.398Z,9.60
2023-04-05T07:39:25.567Z,9.80
2023-04-05T07:42:13.992Z,9.90
2023-04-05T07:45:03.995Z,10.00
2023-04-05T07:47:52.497Z,10.30
2023-04-05T07:50:42.579Z,10.50
2023-04-05T07:53:31.223Z,10.60
2023-04-05T07:56:19.675Z,10.70
2023-04-05T07:59:08.280Z,10.80
2023-04-05T08:02:02.120Z,10.80
2023-04-05T08:05:00.865Z,10.80
2023-04-05T08:07:49.378Z,11.00
2023-04-05T08:10:40.489Z,10.90
2023-04-05T08:13:29.196Z,10.80
2023-04-05T08:16:17.694Z,11.10
2023-04-05T08:19:07.501Z,11.10
2023-04-05T08:21:56.093Z,11.10
2023-04-05T08:24:44.630Z,11.10
2023-04-05T08:27:33.138Z,11.20
2023-04-05T08:30:23.269Z,11.30
2023-04-05T08:33:11.794Z,11.40
2023-04-05T08:36:05.540Z,11.20
2023-04-05T08:38:54.020Z,11.30
2023-04-05T08:41:47.608Z,11.40
2023-04-05T08:44:39.007Z,11.90
2023-04-05T08:47:28.136Z,11.50
2023-04-05T08:50:16.610Z,11.60
2023-04-05T08:53:06.541Z,11.60
2023-04-05T08:55:58.183Z,11.60
2023-04-05T08:58:53.820Z,11.40
2023-04-05T09:01:44.544Z,11.30
2023-04-05T09:04:38.321Z,11.60
2023-04-05T09:10:20.540Z,11.90
2023-04-05T09:13:11.319Z,12.10
2023-04-05T09:16:03.228Z,12.30
2023-04-05T09:18:51.698Z,12.30
2023-04-05T09:21:59.202Z,12.30
2023-04-05T09:24:48.019Z,12.40
2023-04-05T09:27:54.506Z,12.40
2023-04-05T09:30:47.694Z,12.50
2023-04-05T09:33:36.826Z,12.70
2023-04-05T09:36:25.738Z,12.80
2023-04-05T09:39:14.282Z,12.80
2023-04-05T09:42:10.536Z,12.70
2023-04-05T09:45:03.129Z,12.90
2023-04-05T09:47:59.179Z,13.10
2023-04-05T09:50:49.758Z,13.10
2023-04-05T09:53:38.619Z,13.20
2023-04-05T09:56:27.532Z,13.20
2023-04-05T09:59:18.085Z,13.30
2023-04-05T10:02:07.924Z,13.40
2023-04-05T10:04:56.428Z,13.50
2023-04-05T10:07:45.377Z,13.40
2023-04-05T10:10:39.690Z,13.40
2023-04-05T10:13:29.104Z,13.30
2023-04-05T10:16:24.257Z,13.50
2023-04-05T10:19:18.698Z,13.80
2023-04-05T10:22:14.015Z,13.80
2023-04-05T10:25:09.430Z,14.00
2023-04-05T10:28:05.297Z,14.00
2023-04-05T10:31:11.687Z,14.10
2023-04-05T10:34:05.872Z,14.20
2023-04-05T10:37:00.348Z,14.20
2023-04-05T10:39:49.150Z,14.30
2023-04-05T10:42:43.857Z,14.40
2023-04-05T10:45:35.761Z,13.90
2023-04-05T10:48:37.885Z,13.70
2023-04-05T10:51:27.666Z,13.60
2023-04-05T10:54:20.637Z,13.70
2023-04-05T10:57:11.365Z,13.90
2023-04-05T11:00:01.815Z,14.10
2023-04-05T11:02:54.757Z,14.30
2023-04-05T11:05:43.427Z,14.60
2023-04-05T11:08:33.228Z,15.00
2023-04-05T11:11:25.227Z,15.20
2023-04-05T11:14:20.759Z,15.40
2023-04-05T11:17:26.135Z,15.70
2023-04-05T11:20:14.641Z,15.90
2023-04-05T11:23:03.108Z,16.10
2023-04-05T11:25:54.054Z,16.20
2023-04-05T11:28:43.910Z,16.40
2023-04-05T11:31:32.407Z,16.60
2023-04-05T11:34:25.673Z,16.80
2023-04-05T11:48:52.955Z,16.70
2023-04-05T11:51:42.582Z,17.00
2023-04-05T11:54:32.664Z,17.10
2023-04-05T11:57:22.807Z,17.30
2023-04-05T12:00:17.185Z,17.40
2023-04-05T12:03:07.125Z,17.60
2023-04-05T12:05:56.430Z,18.00
2023-04-05T12:08:50.461Z,18.10
2023-04-05T12:11:41.190Z,18.00
2023-04-05T12:14:29.655Z,18.10
2023-04-05T12:17:18.081Z,18.20
2023-04-05T12:20:09.602Z,18.30
2023-04-05T12:25:48.389Z,17.90
2023-04-05T12:28:53.034Z,17.90
2023-04-05T12:31:41.993Z,18.30
2023-04-05T12:34:30.482Z,18.50
2023-04-05T12:37:20.281Z,18.60
2023-04-05T12:40:10.002Z,18.80
2023-04-05T12:43:03.247Z,18.90
2023-04-05T12:45:56.480Z,18.90
2023-04-05T12:48:45.155Z,18.70
2023-04-05T12:51:33.996Z,18.70
2023-04-05T12:54:24.906Z,18.90
2023-04-05T12:57:14.364Z,18.90
2023-04-05T13:00:02.886Z,19.00
2023-04-05T13:02:53.536Z,19.20
2023-04-05T13:05:42.368Z,19.20
2023-04-05T13:08:31.166Z,19.40
2023-04-05T13:11:21.028Z,19.50
2023-04-05T13:14:09.869Z,19.60
2023-04-05T13:16:58.318Z,19.50
2023-04-05T13:19:46.730Z,19.50
2023-04-05T13:22:35.229Z,19.30
2023-04-05T13:25:23.900Z,19.10
2023-04-05T13:28:14.138Z,19.10
2023-04-05T13:31:06.306Z,19.20
2023-04-05T13:33:55.207Z,19.20
2023-04-05T13:36:43.694Z,18.80
2023-04-05T13:39:32.162Z,18.90
2023-04-05T13:42:20.730Z,19.00
2023-04-05T13:45:12.065Z,19.10
2023-04-05T13:48:02.530Z,19.20
2023-04-05T13:50:51.050Z,19.30
2023-04-05T13:53:39.514Z,19.30
2023-04-05T13:56:27.999Z,18.80
2023-04-05T13:59:17.276Z,18.80
2023-04-05T14:02:07.898Z,19.00
2023-04-05T14:04:56.653Z,19.00
2023-04-05T14:07:45.023Z,18.50
2023-04-05T14:10:33.610Z,19.10
2023-04-05T14:13:22.020Z,19.10
2023-04-05T14:16:10.793Z,19.10
2023-04-05T14:19:00.909Z,19.20
2023-04-05T14:21:50.368Z,19.40
2023-04-05T14:24:38.881Z,19.40
2023-04-05T14:27:28.485Z,19.30
2023-04-05T14:30:17.133Z,19.10
2023-04-05T14:33:05.848Z,18.50
2023-04-05T14:35:55.841Z,18.40
2023-04-05T14:38:44.394Z,18.40
2023-04-05T14:41:33.098Z,18.10
2023-04-05T14:44:21.680Z,18.20
2023-04-05T14:47:10.278Z,17.50
2023-04-05T14:49:58.863Z,17.40
2023-04-05T14:52:48.847Z,17.60
2023-04-05T15:12:37.352Z,17.80
2023-04-05T15:15:25.882Z,17.50
2023-04-05T15:18:14.434Z,17.50
2023-04-05T15:21:03.293Z,17.60
2023-04-05T15:23:51.719Z,17.70
2023-04-05T15:26:41.832Z,17.60
2023-04-05T15:29:30.732Z,17.80
2023-04-05T15:32:19.326Z,17.60
2023-04-05T15:35:08.267Z,17.50
2023-04-05T15:37:56.764Z,17.40
2023-04-05T15:40:49.566Z,17.30
2023-04-05T15:43:40.062Z,17.30
2023-04-05T15:46:29.252Z,17.30
2023-04-05T16:09:01.826Z,16.30
2023-04-05T16:11:50.593Z,16.30
2023-04-05T16:14:39.500Z,16.20
2023-04-05T16:17:29.606Z,16.00
2023-04-05T16:20:18.611Z,15.80
2023-04-05T16:23:07.092Z,15.70
2023-04-05T16:25:55.781Z,15.60
2023-04-05T16:28:44.554Z,15.40
2023-04-05T16:31:33.822Z,15.20
2023-04-05T16:34:23.922Z,15.10
2023-04-05T16:37:12.431Z,15.10
2023-04-05T16:40:00.956Z,15.10
2023-04-05T16:42:49.430Z,15.10
2023-04-05T16:45:38.500Z,15.10
2023-04-05T16:48:27.627Z,15.00
2023-04-05T16:51:17.553Z,15.00
2023-04-05T16:54:06.248Z,14.90
2023-04-05T16:56:54.833Z,14.80
2023-04-05T16:59:43.618Z,14.80
2023-04-05T17:02:32.228Z,14.70
2023-04-05T17:05:20.924Z,14.50
2023-04-05T17:08:10.910Z,14.40
2023-04-05T17:10:59.416Z,14.40
2023-04-05T17:13:48.052Z,14.40
2023-04-05T17:16:36.630Z,14.40
2023-04-05T17:19:25.145Z,14.20
2023-04-05T17:22:14.960Z,14.20
2023-04-05T17:25:05.803Z,14.20
2023-04-05T17:27:54.359Z,14.20
2023-04-05T17:30:42.872Z,14.10
2023-04-05T17:33:31.472Z,14.00
2023-04-05T17:36:19.968Z,14.10
2023-04-05T17:39:08.511Z,14.00
2023-04-05T17:41:58.432Z,14.00
2023-04-05T17:44:46.952Z,13.90
2023-04-05T17:47:35.922Z,13.80
2023-04-05T17:50:25.038Z,13.80
2023-04-05T17:53:14.930Z,13.70
2023-04-05T17:56:03.848Z,13.80
2023-04-05T17:58:54.079Z,13.70
2023-04-05T18:01:42.834Z,13.70
2023-04-05T18:05:02.116Z,13.70
2023-04-05T18:07:50.727Z,13.70
2023-04-05T18:10:39.240Z,13.70
2023-04-05T18:13:28.926Z,13.60
2023-04-05T18:16:18.975Z,13.60
2023-04-05T18:19:31.088Z,13.60
2023-04-05T18:22:19.580Z,13.60
2023-04-05T18:25:34.183Z,13.50
2023-04-05T18:28:23.782Z,13.50
2023-04-05T18:31:12.388Z,13.50
2023-04-05T18:34:04.848Z,13.50
2023-04-05T18:36:53.375Z,13.40
2023-04-05T18:39:41.879Z,13.40
2023-04-05T18:42:32.582Z,13.30
2023-04-05T18:45:22.737Z,13.20
2023-04-05T18:48:12.501Z,13.20
2023-04-05T18:51:02.382Z,13.20
2023-04-05T18:53:51.331Z,13.20
2023-04-05T18:56:39.913Z,13.10
2023-04-05T18:59:29.420Z,13.10
2023-04-05T19:02:18.055Z,13.10
2023-04-05T19:05:07.703Z,13.10
2023-04-05T19:07:57.653Z,13.10
2023-04-05T19:10:46.447Z,13.00
2023-04-05T19:13:35.202Z,12.90
2023-04-05T19:16:23.826Z,12.80
2023-04-05T19:19:12.507Z,12.80
2023-04-05T19:22:01.160Z,12.80
2023-04-05T19:24:51.338Z,12.50
2023-04-05T19:27:41.333Z,12.50
2023-04-05T19:30:30.207Z,12.40
2023-04-05T19:33:21.041Z,12.20
2023-04-05T19:36:10.573Z,12.30
2023-04-05T19:38:59.227Z,12.10
2023-04-05T19:41:49.441Z,12.00
2023-04-05T19:44:48.995Z,12.00
2023-04-05T19:47:44.068Z,12.10
2023-04-05T19:50:56.573Z,12.20
2023-04-05T19:53:49.677Z,12.30
2023-04-05T19:56:39.160Z,12.20
2023-04-05T19:59:31.406Z,12.00
2023-04-05T20:02:37.331Z,11.90
2023-04-05T20:05:59.041Z,11.90
2023-04-05T20:08:48.602Z,12.00
2023-04-05T20:11:37.244Z,12.00
2023-04-05T20:14:30.644Z,12.00
2023-04-05T20:17:19.421Z,11.90
2023-04-05T20:20:09.478Z,11.80
2023-04-05T20:22:58.794Z,11.80
2023-04-05T20:25:47.549Z,11.80
2023-04-05T20:28:38.840Z,11.70
2023-04-05T20:31:30.895Z,11.70
2023-04-05T20:34:27.803Z,11.60
2023-04-05T20:37:16.517Z,11.50
2023-04-05T20:40:05.392Z,11.40
2023-04-05T20:42:53.898Z,11.50
2023-04-05T20:45:43.082Z,11.50
2023-04-05T20:48:34.057Z,11.70
2023-04-05T20:51:22.595Z,11.60
2023-04-05T20:54:11.498Z,11.60
2023-04-05T20:57:00.053Z,11.50
2023-04-05T20:59:48.602Z,11.40
2023-04-05T21:02:37.250Z,11.30
2023-04-05T21:05:27.289Z,11.20
2023-04-05T21:08:16.232Z,11.00
2023-04-05T21:11:05.504Z,10.90
2023-04-05T21:13:54.060Z,10.70
2023-04-05T21:16:42.535Z,10.70
2023-04-05T21:19:31.019Z,10.90
2023-04-05T21:22:21.305Z,11.00
2023-04-05T21:25:10.666Z,11.10
2023-04-05T21:27:59.549Z,11.10
2023-04-05T21:30:48.076Z,11.30
2023-04-05T21:33:36.564Z,11.30
2023-04-05T21:36:25.037Z,11.30
2023-04-05T21:39:15.033Z,11.20
2023-04-05T21:42:03.704Z,11.10
2023-04-05T21:44:52.195Z,11.00
2023-04-05T21:47:41.163Z,10.50
2023-04-05T21:50:29.676Z,9.90
2023-04-05T21:53:18.235Z,9.80
2023-04-05T21:56:08.271Z,9.80
2023-04-05T21:58:56.815Z,9.40
2023-04-05T22:01:45.431Z,9.40
2023-04-05T22:04:33.976Z,8.90
2023-04-05T22:07:22.453Z,9.30
2023-04-05T22:10:11.441Z,9.20
2023-04-05T22:13:01.425Z,9.40
2023-04-05T22:15:49.983Z,9.60
2023-04-05T22:18:38.471Z,9.60
2023-04-05T22:21:26.993Z,9.60
2023-04-05T22:24:15.859Z,9.60
2023-04-05T22:27:04.385Z,9.50
2023-04-05T22:29:54.754Z,9.60
2023-04-05T22:32:43.353Z,9.60
2023-04-05T22:35:31.972Z,9.20
2023-04-05T22:38:20.461Z,8.50
2023-04-05T22:41:08.975Z,7.90
2023-04-05T22:43:57.504Z,8.20
2023-04-05T22:46:47.422Z,8.50
2023-04-05T22:49:36.374Z,8.80
2023-04-05T22:52:24.903Z,9.20
2023-04-05T22:55:13.809Z,9.20
2023-04-05T22:58:02.334Z,9.00
2023-04-05T23:00:51.553Z,9.20
2023-04-05T23:03:41.565Z,9.30
2023-04-05T23:06:30.239Z,9.40
2023-04-05T23:09:18.700Z,8.30
2023-04-05T23:12:08.035Z,8.00
2023-04-05T23:14:58.239Z,8.10
2023-04-05T23:17:46.821Z,8.50
2023-04-05T23:20:36.828Z,8.50
2023-04-05T23:23:25.819Z,8.70
2023-04-05T23:26:14.324Z,9.00
2023-04-05T23:29:02.933Z,9.30
2023-04-05T23:31:53.154Z,9.30
2023-04-05T23:34:41.726Z,9.30
2023-04-05T23:37:31.844Z,9.40
2023-04-05T23:40:20.468Z,9.40
2023-04-05T23:43:08.978Z,9.30
2023-04-05T23:45:57.602Z,9.40
2023-04-05T23:48:46.101Z,9.40
2023-04-05T23:51:34.610Z,9.20
2023-04-05T23:54:24.656Z,9.10
2023-04-05T23:57:13.107Z,8.40
